Avon, New York
Current Conditions -  °F | °C
As of 1:54 PM on Sunday 21 Dec 2014 (Local Time) from KROC Reporting Station
Scattered Clouds Scattered Clouds  
Wind Chill: 32°   Ceiling: Unl
Heat Index: 36°   Visibility: 10mi
Dew Point: 22°   Wind: 5mph
Humidity: 57%   Direction: 310°NW
Pressure: 30.28"   Gusts: NA
Location:  42.91°N, 77.75°W
Report Text: KROC 211854Z 31004KT 10SM SCT033 02/M06 A3028 RMK AO2 SLP263 T00221056
Loading
Personal Weather Stations






























Interactive Weather Map New forecast layout! Learn more

10-Day Weather Forecast

Advertisements
Track Severe Weather on mobile